Kezdőlap
METAR-TAF:

METAR-TAF

Repülőterek :

Lviv-Danilo Halickij nemzetközi repülőtér

Lviv, Ukrajna

földrajzi szélesség: 49-49N, földrajzi hosszúság: 023-57E, magasság: 319 m

Jelenlegi meteorológiai megfigyelések

A jelentés 16 perccel ezelõtt készült, 02:00 UTC
Dél-délkeleti szél 12 kt
Hőmérséklet 10°C
Páratartalom 53%
Légköri nyomás 1020 hPa
Látótávolság 10 km, vagy több
felhőtlen 1500 m magasságban, és nincs gomolyfelhõ

METAR: UKLL 240200Z 16006MPS CAVOK 10/01 Q1020 R13/D NOSIG

Idő: 05:16 (02:16 UTC)

Előrejelzés

A jelentés 3 órával és 11 perccel ezelõtt készült, 23:05 UTC
Az előrejelzés 24-én 00 óra UTC és 24-én 24 óra UTC között érvényes
Délkeleti szél 14 kt széllökések: 27 kt
Látótávolság 10 km, vagy több
Szakadozott felhőzet 3000 lábon

TAF: UKLL 232305Z 2400/2424 14007G14MPS 9999 BKN030

Meteorológiai megfigyelések és előrejelzések több, mint 4000 repülőtéren (METAR és TAF jelentéseket).

A térképen piros és sárga pontok jelzik az elérhető meteorológiai állomásokat.

Mozgassa az egeret a pont fölött, hogy megjelenjen az állomás neve.

Azután kattintson az időjárási megfigyelések és előrejelzések megtekintéséhez.

A térkép megváltoztatása: kattintson a fekete keresztel jelölt zöld gombra ráközelítéshez, a vonallal jelölt zöld gombra távolításhoz, vagy a zöld nyilakra a szomszédos térképek eléréséhez.


METAR-TAF: